sensor_id;sensor_type;location;lat;lon;timestamp;P1;durP1;ratioP1;P2;durP2;ratioP2
33696;SDS011;20031;43.416;23.232;2022-08-25T00:00:41;27.00;;;6.25;;
33696;SDS011;20031;43.416;23.232;2022-08-25T00:03:07;28.60;;;6.50;;
33696;SDS011;20031;43.416;23.232;2022-08-25T00:05:33;21.35;;;6.70;;
33696;SDS011;20031;43.416;23.232;2022-08-25T00:07:59;31.08;;;6.90;;
33696;SDS011;20031;43.416;23.232;2022-08-25T00:10:26;29.45;;;6.55;;
33696;SDS011;20031;43.416;23.232;2022-08-25T00:12:52;34.80;;;6.13;;
33696;SDS011;20031;43.416;23.232;2022-08-25T00:15:18;32.90;;;6.85;;
33696;SDS011;20031;43.416;23.232;2022-08-25T00:17:44;37.28;;;6.15;;
33696;SDS011;20031;43.416;23.232;2022-08-25T00:20:10;26.98;;;6.10;;
33696;SDS011;20031;43.416;23.232;2022-08-25T00:22:35;35.10;;;6.85;;
33696;SDS011;20031;43.416;23.232;2022-08-25T00:25:01;23.83;;;6.65;;
33696;SDS011;20031;43.416;23.232;2022-08-25T00:27:26;24.90;;;6.90;;
33696;SDS011;20031;43.416;23.232;2022-08-25T00:29:52;24.60;;;6.97;;
33696;SDS011;20031;43.416;23.232;2022-08-25T00:32:17;25.42;;;6.88;;
33696;SDS011;20031;43.416;23.232;2022-08-25T00:34:43;27.88;;;7.15;;
33696;SDS011;20031;43.416;23.232;2022-08-25T00:37:09;26.70;;;7.40;;
33696;SDS011;20031;43.416;23.232;2022-08-25T00:39:34;35.55;;;6.95;;
33696;SDS011;20031;43.416;23.232;2022-08-25T00:42:00;28.60;;;7.10;;
33696;SDS011;20031;43.416;23.232;2022-08-25T00:44:28;19.13;;;6.95;;
33696;SDS011;20031;43.416;23.232;2022-08-25T00:46:55;21.90;;;6.20;;
33696;SDS011;20031;43.416;23.232;2022-08-25T00:52:05;19.58;;;6.93;;
33696;SDS011;20031;43.416;23.232;2022-08-25T00:54:37;25.88;;;7.10;;
33696;SDS011;20031;43.416;23.232;2022-08-25T00:57:07;22.38;;;6.82;;
33696;SDS011;20031;43.416;23.232;2022-08-25T00:59:34;27.02;;;7.45;;
33696;SDS011;20031;43.416;23.232;2022-08-25T01:02:00;24.60;;;7.07;;
33696;SDS011;20031;43.416;23.232;2022-08-25T01:04:28;22.63;;;7.35;;
33696;SDS011;20031;43.416;23.232;2022-08-25T01:06:54;28.45;;;7.65;;
33696;SDS011;20031;43.416;23.232;2022-08-25T01:09:22;30.88;;;7.25;;
33696;SDS011;20031;43.416;23.232;2022-08-25T01:11:47;28.85;;;7.13;;
33696;SDS011;20031;43.416;23.232;2022-08-25T01:14:14;26.77;;;6.68;;
33696;SDS011;20031;43.416;23.232;2022-08-25T01:16:42;36.97;;;7.22;;
33696;SDS011;20031;43.416;23.232;2022-08-25T01:19:08;22.58;;;6.47;;
33696;SDS011;20031;43.416;23.232;2022-08-25T01:21:39;29.70;;;6.50;;
33696;SDS011;20031;43.416;23.232;2022-08-25T01:24:11;24.35;;;7.10;;
33696;SDS011;20031;43.416;23.232;2022-08-25T01:26:58;34.22;;;7.60;;
33696;SDS011;20031;43.416;23.232;2022-08-25T01:29:23;23.02;;;6.55;;
33696;SDS011;20031;43.416;23.232;2022-08-25T01:31:57;20.60;;;6.80;;
33696;SDS011;20031;43.416;23.232;2022-08-25T01:34:25;32.93;;;7.23;;
33696;SDS011;20031;43.416;23.232;2022-08-25T01:36:54;25.70;;;6.70;;
33696;SDS011;20031;43.416;23.232;2022-08-25T01:39:21;20.98;;;6.30;;
33696;SDS011;20031;43.416;23.232;2022-08-25T01:44:12;25.00;;;6.40;;
33696;SDS011;20031;43.416;23.232;2022-08-25T01:46:39;32.85;;;6.60;;
33696;SDS011;20031;43.416;23.232;2022-08-25T01:49:04;32.05;;;6.80;;
33696;SDS011;20031;43.416;23.232;2022-08-25T01:51:37;22.77;;;6.90;;
33696;SDS011;20031;43.416;23.232;2022-08-25T01:54:10;31.55;;;7.05;;
33696;SDS011;20031;43.416;23.232;2022-08-25T01:56:36;21.95;;;6.40;;
33696;SDS011;20031;43.416;23.232;2022-08-25T01:59:02;23.60;;;6.40;;
33696;SDS011;20031;43.416;23.232;2022-08-25T02:01:27;34.47;;;5.90;;
33696;SDS011;20031;43.416;23.232;2022-08-25T02:03:54;25.33;;;5.85;;
33696;SDS011;20031;43.416;23.232;2022-08-25T02:06:28;29.75;;;6.75;;
33696;SDS011;20031;43.416;23.232;2022-08-25T02:08:58;32.83;;;6.30;;
33696;SDS011;20031;43.416;23.232;2022-08-25T02:11:29;27.23;;;6.40;;
33696;SDS011;20031;43.416;23.232;2022-08-25T02:13:55;31.77;;;6.30;;
33696;SDS011;20031;43.416;23.232;2022-08-25T02:16:25;33.97;;;6.90;;
33696;SDS011;20031;43.416;23.232;2022-08-25T02:18:52;26.73;;;6.32;;
33696;SDS011;20031;43.416;23.232;2022-08-25T02:21:19;24.55;;;5.93;;
33696;SDS011;20031;43.416;23.232;2022-08-25T02:23:44;25.70;;;6.22;;
33696;SDS011;20031;43.416;23.232;2022-08-25T02:26:10;30.80;;;5.97;;
33696;SDS011;20031;43.416;23.232;2022-08-25T02:28:35;36.67;;;5.75;;
33696;SDS011;20031;43.416;23.232;2022-08-25T02:31:02;35.30;;;6.53;;
33696;SDS011;20031;43.416;23.232;2022-08-25T02:33:28;25.98;;;5.80;;
33696;SDS011;20031;43.416;23.232;2022-08-25T02:35:58;38.33;;;6.30;;
33696;SDS011;20031;43.416;23.232;2022-08-25T02:38:24;33.47;;;5.88;;
33696;SDS011;20031;43.416;23.232;2022-08-25T02:40:52;36.60;;;6.45;;
33696;SDS011;20031;43.416;23.232;2022-08-25T02:43:22;39.55;;;6.70;;
33696;SDS011;20031;43.416;23.232;2022-08-25T02:45:49;29.45;;;6.80;;
33696;SDS011;20031;43.416;23.232;2022-08-25T02:48:19;29.15;;;6.30;;
33696;SDS011;20031;43.416;23.232;2022-08-25T02:50:48;29.40;;;5.82;;
33696;SDS011;20031;43.416;23.232;2022-08-25T02:53:17;38.08;;;6.05;;
33696;SDS011;20031;43.416;23.232;2022-08-25T02:55:43;28.67;;;6.32;;
33696;SDS011;20031;43.416;23.232;2022-08-25T02:58:09;26.90;;;6.20;;
33696;SDS011;20031;43.416;23.232;2022-08-25T03:00:35;32.55;;;6.70;;
33696;SDS011;20031;43.416;23.232;2022-08-25T03:03:01;25.55;;;5.75;;
33696;SDS011;20031;43.416;23.232;2022-08-25T03:05:26;30.20;;;5.93;;
33696;SDS011;20031;43.416;23.232;2022-08-25T03:07:52;29.98;;;5.78;;
33696;SDS011;20031;43.416;23.232;2022-08-25T03:10:17;26.23;;;5.97;;
33696;SDS011;20031;43.416;23.232;2022-08-25T03:12:44;29.77;;;5.72;;
33696;SDS011;20031;43.416;23.232;2022-08-25T03:15:10;27.85;;;6.18;;
33696;SDS011;20031;43.416;23.232;2022-08-25T03:17:37;31.95;;;5.68;;
33696;SDS011;20031;43.416;23.232;2022-08-25T03:20:04;32.08;;;5.57;;
33696;SDS011;20031;43.416;23.232;2022-08-25T03:22:31;38.03;;;5.75;;
33696;SDS011;20031;43.416;23.232;2022-08-25T03:24:57;30.95;;;5.72;;
33696;SDS011;20031;43.416;23.232;2022-08-25T03:27:42;39.30;;;6.60;;
33696;SDS011;20031;43.416;23.232;2022-08-25T03:30:08;32.45;;;6.13;;
33696;SDS011;20031;43.416;23.232;2022-08-25T03:32:34;36.80;;;6.60;;
33696;SDS011;20031;43.416;23.232;2022-08-25T03:35:00;23.98;;;5.95;;
33696;SDS011;20031;43.416;23.232;2022-08-25T03:37:26;29.90;;;6.03;;
33696;SDS011;20031;43.416;23.232;2022-08-25T03:39:51;36.28;;;5.90;;
33696;SDS011;20031;43.416;23.232;2022-08-25T03:42:17;33.88;;;6.20;;
33696;SDS011;20031;43.416;23.232;2022-08-25T03:44:42;39.67;;;6.60;;
33696;SDS011;20031;43.416;23.232;2022-08-25T03:47:08;25.27;;;6.45;;
33696;SDS011;20031;43.416;23.232;2022-08-25T03:49:34;26.20;;;6.10;;
33696;SDS011;20031;43.416;23.232;2022-08-25T03:51:59;31.15;;;5.85;;
33696;SDS011;20031;43.416;23.232;2022-08-25T03:54:25;34.17;;;6.40;;
33696;SDS011;20031;43.416;23.232;2022-08-25T03:56:51;28.33;;;5.93;;
33696;SDS011;20031;43.416;23.232;2022-08-25T03:59:17;33.20;;;6.03;;
33696;SDS011;20031;43.416;23.232;2022-08-25T04:01:43;26.58;;;6.00;;
33696;SDS011;20031;43.416;23.232;2022-08-25T04:04:10;31.27;;;6.50;;
33696;SDS011;20031;43.416;23.232;2022-08-25T04:06:39;30.88;;;5.63;;
33696;SDS011;20031;43.416;23.232;2022-08-25T04:09:07;29.90;;;5.75;;
33696;SDS011;20031;43.416;23.232;2022-08-25T04:11:33;29.83;;;5.65;;
33696;SDS011;20031;43.416;23.232;2022-08-25T04:13:59;35.85;;;6.68;;
33696;SDS011;20031;43.416;23.232;2022-08-25T04:16:27;28.10;;;5.88;;
33696;SDS011;20031;43.416;23.232;2022-08-25T04:18:58;39.17;;;5.72;;
33696;SDS011;20031;43.416;23.232;2022-08-25T04:21:25;32.53;;;5.93;;
33696;SDS011;20031;43.416;23.232;2022-08-25T04:23:52;39.78;;;5.90;;
33696;SDS011;20031;43.416;23.232;2022-08-25T04:27:01;38.45;;;6.72;;
33696;SDS011;20031;43.416;23.232;2022-08-25T04:29:13;32.75;;;6.22;;
33696;SDS011;20031;43.416;23.232;2022-08-25T04:31:41;35.60;;;7.20;;
33696;SDS011;20031;43.416;23.232;2022-08-25T04:34:08;34.42;;;6.60;;
33696;SDS011;20031;43.416;23.232;2022-08-25T04:36:35;44.35;;;7.35;;
33696;SDS011;20031;43.416;23.232;2022-08-25T04:39:01;38.50;;;6.95;;
33696;SDS011;20031;43.416;23.232;2022-08-25T04:41:27;42.47;;;8.80;;
33696;SDS011;20031;43.416;23.232;2022-08-25T04:43:55;39.58;;;9.93;;
33696;SDS011;20031;43.416;23.232;2022-08-25T04:46:23;47.22;;;10.77;;
33696;SDS011;20031;43.416;23.232;2022-08-25T04:48:50;47.90;;;10.23;;
33696;SDS011;20031;43.416;23.232;2022-08-25T04:51:18;61.80;;;11.07;;
33696;SDS011;20031;43.416;23.232;2022-08-25T04:53:47;48.05;;;10.57;;
33696;SDS011;20031;43.416;23.232;2022-08-25T04:56:14;39.45;;;9.38;;
33696;SDS011;20031;43.416;23.232;2022-08-25T04:58:42;47.65;;;9.65;;
33696;SDS011;20031;43.416;23.232;2022-08-25T05:01:10;37.05;;;10.00;;
33696;SDS011;20031;43.416;23.232;2022-08-25T05:03:41;51.60;;;10.73;;
33696;SDS011;20031;43.416;23.232;2022-08-25T05:06:07;50.80;;;11.23;;
33696;SDS011;20031;43.416;23.232;2022-08-25T05:08:33;49.65;;;11.00;;
33696;SDS011;20031;43.416;23.232;2022-08-25T05:11:06;50.88;;;11.75;;
33696;SDS011;20031;43.416;23.232;2022-08-25T05:13:34;45.97;;;10.18;;
33696;SDS011;20031;43.416;23.232;2022-08-25T05:16:00;53.30;;;9.93;;
33696;SDS011;20031;43.416;23.232;2022-08-25T05:18:27;43.70;;;9.70;;
33696;SDS011;20031;43.416;23.232;2022-08-25T05:20:55;53.42;;;9.57;;
33696;SDS011;20031;43.416;23.232;2022-08-25T05:23:22;39.47;;;8.80;;
33696;SDS011;20031;43.416;23.232;2022-08-25T05:25:49;43.72;;;9.07;;
33696;SDS011;20031;43.416;23.232;2022-08-25T05:28:16;53.53;;;8.70;;
33696;SDS011;20031;43.416;23.232;2022-08-25T05:30:43;49.38;;;8.18;;
33696;SDS011;20031;43.416;23.232;2022-08-25T05:33:09;52.60;;;9.93;;
33696;SDS011;20031;43.416;23.232;2022-08-25T05:35:36;48.10;;;9.43;;
33696;SDS011;20031;43.416;23.232;2022-08-25T05:38:02;41.90;;;8.38;;
33696;SDS011;20031;43.416;23.232;2022-08-25T05:40:28;51.80;;;8.38;;
33696;SDS011;20031;43.416;23.232;2022-08-25T05:42:55;43.42;;;9.90;;
33696;SDS011;20031;43.416;23.232;2022-08-25T05:45:20;54.03;;;10.25;;
33696;SDS011;20031;43.416;23.232;2022-08-25T05:47:47;68.45;;;10.10;;
33696;SDS011;20031;43.416;23.232;2022-08-25T05:50:13;75.07;;;10.70;;
33696;SDS011;20031;43.416;23.232;2022-08-25T05:52:39;63.40;;;9.93;;
33696;SDS011;20031;43.416;23.232;2022-08-25T05:55:04;75.05;;;10.55;;
33696;SDS011;20031;43.416;23.232;2022-08-25T05:57:31;51.45;;;8.23;;
33696;SDS011;20031;43.416;23.232;2022-08-25T05:59:57;41.40;;;7.80;;
33696;SDS011;20031;43.416;23.232;2022-08-25T06:02:22;54.30;;;8.05;;
33696;SDS011;20031;43.416;23.232;2022-08-25T06:05:18;63.42;;;8.35;;
33696;SDS011;20031;43.416;23.232;2022-08-25T06:07:46;52.65;;;9.60;;
33696;SDS011;20031;43.416;23.232;2022-08-25T06:10:13;46.30;;;8.98;;
33696;SDS011;20031;43.416;23.232;2022-08-25T06:12:40;55.63;;;8.63;;
33696;SDS011;20031;43.416;23.232;2022-08-25T06:15:11;37.33;;;8.88;;
33696;SDS011;20031;43.416;23.232;2022-08-25T06:17:38;58.08;;;8.75;;
33696;SDS011;20031;43.416;23.232;2022-08-25T06:22:34;41.75;;;8.10;;
33696;SDS011;20031;43.416;23.232;2022-08-25T06:25:01;41.00;;;8.07;;
33696;SDS011;20031;43.416;23.232;2022-08-25T06:27:28;36.15;;;8.98;;
33696;SDS011;20031;43.416;23.232;2022-08-25T06:29:54;29.23;;;7.35;;
33696;SDS011;20031;43.416;23.232;2022-08-25T06:32:19;47.92;;;6.93;;
33696;SDS011;20031;43.416;23.232;2022-08-25T06:34:45;28.50;;;7.10;;
33696;SDS011;20031;43.416;23.232;2022-08-25T06:37:10;26.30;;;6.90;;
33696;SDS011;20031;43.416;23.232;2022-08-25T06:39:36;37.05;;;10.60;;
33696;SDS011;20031;43.416;23.232;2022-08-25T06:42:01;34.78;;;6.97;;
33696;SDS011;20031;43.416;23.232;2022-08-25T06:44:26;34.42;;;7.55;;
33696;SDS011;20031;43.416;23.232;2022-08-25T06:46:52;35.55;;;6.70;;
33696;SDS011;20031;43.416;23.232;2022-08-25T06:49:18;34.22;;;6.90;;
33696;SDS011;20031;43.416;23.232;2022-08-25T06:51:43;36.40;;;7.47;;
33696;SDS011;20031;43.416;23.232;2022-08-25T06:54:10;28.88;;;6.38;;
33696;SDS011;20031;43.416;23.232;2022-08-25T06:56:35;26.42;;;6.03;;
33696;SDS011;20031;43.416;23.232;2022-08-25T06:59:02;27.02;;;6.50;;
33696;SDS011;20031;43.416;23.232;2022-08-25T07:01:29;30.15;;;5.78;;
33696;SDS011;20031;43.416;23.232;2022-08-25T07:03:56;36.83;;;5.28;;
33696;SDS011;20031;43.416;23.232;2022-08-25T07:06:24;40.15;;;5.90;;
33696;SDS011;20031;43.416;23.232;2022-08-25T07:08:55;29.52;;;5.80;;
33696;SDS011;20031;43.416;23.232;2022-08-25T07:11:20;32.00;;;5.25;;
33696;SDS011;20031;43.416;23.232;2022-08-25T07:13:46;24.98;;;5.45;;
33696;SDS011;20031;43.416;23.232;2022-08-25T07:16:12;32.58;;;6.30;;
33696;SDS011;20031;43.416;23.232;2022-08-25T07:18:42;29.80;;;6.00;;
33696;SDS011;20031;43.416;23.232;2022-08-25T07:21:08;28.58;;;5.65;;
33696;SDS011;20031;43.416;23.232;2022-08-25T07:23:35;27.15;;;5.47;;
33696;SDS011;20031;43.416;23.232;2022-08-25T07:26:10;27.00;;;5.45;;
33696;SDS011;20031;43.416;23.232;2022-08-25T07:28:38;23.65;;;5.60;;
33696;SDS011;20031;43.416;23.232;2022-08-25T07:31:04;27.02;;;5.20;;
33696;SDS011;20031;43.416;23.232;2022-08-25T07:33:30;23.33;;;5.45;;
33696;SDS011;20031;43.416;23.232;2022-08-25T07:35:55;28.60;;;5.40;;
33696;SDS011;20031;43.416;23.232;2022-08-25T07:38:21;37.80;;;5.38;;
33696;SDS011;20031;43.416;23.232;2022-08-25T07:40:47;28.05;;;5.43;;
33696;SDS011;20031;43.416;23.232;2022-08-25T07:43:18;33.38;;;5.18;;
33696;SDS011;20031;43.416;23.232;2022-08-25T07:45:46;53.63;;;6.00;;
33696;SDS011;20031;43.416;23.232;2022-08-25T07:48:12;26.65;;;5.45;;
33696;SDS011;20031;43.416;23.232;2022-08-25T07:50:41;34.03;;;4.72;;
33696;SDS011;20031;43.416;23.232;2022-08-25T07:53:09;33.30;;;5.88;;
33696;SDS011;20031;43.416;23.232;2022-08-25T07:55:36;30.10;;;5.05;;
33696;SDS011;20031;43.416;23.232;2022-08-25T07:58:03;37.42;;;5.13;;
33696;SDS011;20031;43.416;23.232;2022-08-25T08:00:31;36.85;;;5.00;;
33696;SDS011;20031;43.416;23.232;2022-08-25T08:02:58;28.55;;;5.40;;
33696;SDS011;20031;43.416;23.232;2022-08-25T08:05:25;30.05;;;4.72;;
33696;SDS011;20031;43.416;23.232;2022-08-25T08:07:53;26.45;;;4.90;;
33696;SDS011;20031;43.416;23.232;2022-08-25T08:10:19;41.72;;;5.43;;
33696;SDS011;20031;43.416;23.232;2022-08-25T08:12:45;38.33;;;5.47;;
33696;SDS011;20031;43.416;23.232;2022-08-25T08:15:10;44.13;;;5.35;;
33696;SDS011;20031;43.416;23.232;2022-08-25T08:17:37;50.65;;;5.82;;
33696;SDS011;20031;43.416;23.232;2022-08-25T08:20:03;41.35;;;5.28;;
33696;SDS011;20031;43.416;23.232;2022-08-25T08:22:32;46.70;;;5.45;;
33696;SDS011;20031;43.416;23.232;2022-08-25T08:25:02;45.97;;;5.43;;
33696;SDS011;20031;43.416;23.232;2022-08-25T08:27:28;36.08;;;5.03;;
33696;SDS011;20031;43.416;23.232;2022-08-25T08:29:54;46.38;;;5.10;;
33696;SDS011;20031;43.416;23.232;2022-08-25T08:32:19;45.78;;;5.10;;
33696;SDS011;20031;43.416;23.232;2022-08-25T08:34:45;49.55;;;5.60;;
33696;SDS011;20031;43.416;23.232;2022-08-25T08:37:11;36.88;;;4.75;;
33696;SDS011;20031;43.416;23.232;2022-08-25T08:39:38;42.05;;;4.97;;
33696;SDS011;20031;43.416;23.232;2022-08-25T08:47:36;50.38;;;5.97;;
33696;SDS011;20031;43.416;23.232;2022-08-25T08:52:57;58.55;;;6.53;;
33696;SDS011;20031;43.416;23.232;2022-08-25T08:58:05;57.47;;;5.70;;
33696;SDS011;20031;43.416;23.232;2022-08-25T09:00:38;37.03;;;4.68;;
33696;SDS011;20031;43.416;23.232;2022-08-25T09:06:11;56.88;;;5.10;;
33696;SDS011;20031;43.416;23.232;2022-08-25T09:08:58;45.47;;;4.57;;
33696;SDS011;20031;43.416;23.232;2022-08-25T09:27:55;34.83;;;4.57;;
33696;SDS011;20031;43.416;23.232;2022-08-25T09:30:16;40.60;;;6.10;;
33696;SDS011;20031;43.416;23.232;2022-08-25T09:32:45;47.20;;;5.65;;
33696;SDS011;20031;43.416;23.232;2022-08-25T09:35:17;54.67;;;4.65;;
33696;SDS011;20031;43.416;23.232;2022-08-25T09:38:11;45.33;;;5.07;;
33696;SDS011;20031;43.416;23.232;2022-08-25T09:40:42;47.03;;;4.93;;
33696;SDS011;20031;43.416;23.232;2022-08-25T09:51:22;51.85;;;6.60;;
33696;SDS011;20031;43.416;23.232;2022-08-25T09:53:59;49.75;;;5.25;;
33696;SDS011;20031;43.416;23.232;2022-08-25T09:56:27;53.38;;;5.80;;
33696;SDS011;20031;43.416;23.232;2022-08-25T10:01:53;46.15;;;5.43;;
33696;SDS011;20031;43.416;23.232;2022-08-25T10:04:25;46.83;;;5.03;;
33696;SDS011;20031;43.416;23.232;2022-08-25T10:06:52;44.38;;;4.45;;
33696;SDS011;20031;43.416;23.232;2022-08-25T10:09:26;39.45;;;4.35;;
33696;SDS011;20031;43.416;23.232;2022-08-25T10:11:57;39.22;;;4.90;;
33696;SDS011;20031;43.416;23.232;2022-08-25T10:14:27;45.38;;;5.70;;
33696;SDS011;20031;43.416;23.232;2022-08-25T10:17:16;38.23;;;4.40;;
33696;SDS011;20031;43.416;23.232;2022-08-25T10:19:52;61.30;;;5.85;;
33696;SDS011;20031;43.416;23.232;2022-08-25T10:22:33;37.90;;;4.28;;
33696;SDS011;20031;43.416;23.232;2022-08-25T10:24:59;43.20;;;4.03;;
33696;SDS011;20031;43.416;23.232;2022-08-25T10:35:58;57.80;;;6.75;;
33696;SDS011;20031;43.416;23.232;2022-08-25T10:44:06;67.10;;;8.15;;
33696;SDS011;20031;43.416;23.232;2022-08-25T10:49:44;53.95;;;6.03;;
33696;SDS011;20031;43.416;23.232;2022-08-25T10:52:16;57.83;;;5.32;;
33696;SDS011;20031;43.416;23.232;2022-08-25T10:55:06;51.55;;;4.65;;
33696;SDS011;20031;43.416;23.232;2022-08-25T10:58:02;58.33;;;6.03;;
33696;SDS011;20031;43.416;23.232;2022-08-25T11:00:43;43.70;;;4.72;;
33696;SDS011;20031;43.416;23.232;2022-08-25T11:06:43;56.90;;;5.20;;
33696;SDS011;20031;43.416;23.232;2022-08-25T11:09:33;73.47;;;6.25;;
33696;SDS011;20031;43.416;23.232;2022-08-25T11:12:05;67.40;;;5.18;;
33696;SDS011;20031;43.416;23.232;2022-08-25T11:17:47;56.78;;;5.28;;
33696;SDS011;20031;43.416;23.232;2022-08-25T11:20:45;55.88;;;4.43;;
33696;SDS011;20031;43.416;23.232;2022-08-25T11:23:22;38.33;;;4.60;;
33696;SDS011;20031;43.416;23.232;2022-08-25T11:25:53;56.05;;;5.07;;
33696;SDS011;20031;43.416;23.232;2022-08-25T11:31:14;66.07;;;4.57;;
33696;SDS011;20031;43.416;23.232;2022-08-25T11:33:43;65.90;;;5.45;;
33696;SDS011;20031;43.416;23.232;2022-08-25T11:36:16;53.15;;;6.63;;
33696;SDS011;20031;43.416;23.232;2022-08-25T11:41:49;116.38;;;19.90;;
33696;SDS011;20031;43.416;23.232;2022-08-25T11:55:51;57.92;;;5.43;;
33696;SDS011;20031;43.416;23.232;2022-08-25T12:01:09;61.05;;;8.38;;
33696;SDS011;20031;43.416;23.232;2022-08-25T12:04:15;78.70;;;6.38;;
33696;SDS011;20031;43.416;23.232;2022-08-25T12:09:29;69.78;;;8.38;;
33696;SDS011;20031;43.416;23.232;2022-08-25T12:11:56;73.65;;;7.13;;
33696;SDS011;20031;43.416;23.232;2022-08-25T12:27:16;59.83;;;5.47;;
33696;SDS011;20031;43.416;23.232;2022-08-25T12:45:50;50.47;;;4.95;;
33696;SDS011;20031;43.416;23.232;2022-08-25T12:53:38;45.85;;;4.43;;
33696;SDS011;20031;43.416;23.232;2022-08-25T12:56:27;53.20;;;6.18;;
33696;SDS011;20031;43.416;23.232;2022-08-25T13:07:03;70.63;;;6.65;;
33696;SDS011;20031;43.416;23.232;2022-08-25T13:12:04;44.87;;;4.13;;
33696;SDS011;20031;43.416;23.232;2022-08-25T13:14:41;36.70;;;3.90;;
33696;SDS011;20031;43.416;23.232;2022-08-25T13:17:09;51.00;;;4.70;;
33696;SDS011;20031;43.416;23.232;2022-08-25T13:19:36;54.63;;;6.15;;
33696;SDS011;20031;43.416;23.232;2022-08-25T13:22:09;44.78;;;5.93;;
33696;SDS011;20031;43.416;23.232;2022-08-25T13:24:41;48.50;;;6.85;;
33696;SDS011;20031;43.416;23.232;2022-08-25T13:27:08;60.92;;;6.82;;
33696;SDS011;20031;43.416;23.232;2022-08-25T13:29:55;68.35;;;7.93;;
33696;SDS011;20031;43.416;23.232;2022-08-25T13:32:27;59.25;;;4.90;;
33696;SDS011;20031;43.416;23.232;2022-08-25T13:35:10;54.72;;;5.40;;
33696;SDS011;20031;43.416;23.232;2022-08-25T13:37:39;54.00;;;5.20;;
33696;SDS011;20031;43.416;23.232;2022-08-25T13:42:34;44.42;;;5.60;;
33696;SDS011;20031;43.416;23.232;2022-08-25T13:45:01;49.42;;;5.95;;
33696;SDS011;20031;43.416;23.232;2022-08-25T13:47:39;51.17;;;5.72;;
33696;SDS011;20031;43.416;23.232;2022-08-25T13:52:53;44.95;;;6.05;;
33696;SDS011;20031;43.416;23.232;2022-08-25T13:55:22;47.55;;;7.32;;
33696;SDS011;20031;43.416;23.232;2022-08-25T13:57:50;37.55;;;5.07;;
33696;SDS011;20031;43.416;23.232;2022-08-25T14:00:30;48.53;;;5.10;;
33696;SDS011;20031;43.416;23.232;2022-08-25T14:02:58;31.13;;;4.25;;
33696;SDS011;20031;43.416;23.232;2022-08-25T14:08:00;44.08;;;5.20;;
33696;SDS011;20031;43.416;23.232;2022-08-25T14:13:32;49.50;;;5.45;;
33696;SDS011;20031;43.416;23.232;2022-08-25T14:16:11;42.38;;;5.05;;
33696;SDS011;20031;43.416;23.232;2022-08-25T14:18:38;46.47;;;4.65;;
33696;SDS011;20031;43.416;23.232;2022-08-25T14:21:10;34.13;;;4.05;;
33696;SDS011;20031;43.416;23.232;2022-08-25T14:23:37;43.97;;;4.28;;
33696;SDS011;20031;43.416;23.232;2022-08-25T14:26:03;36.17;;;4.28;;
33696;SDS011;20031;43.416;23.232;2022-08-25T14:28:29;54.45;;;7.03;;
33696;SDS011;20031;43.416;23.232;2022-08-25T14:31:06;39.40;;;5.72;;
33696;SDS011;20031;43.416;23.232;2022-08-25T14:33:37;39.05;;;4.57;;
33696;SDS011;20031;43.416;23.232;2022-08-25T14:36:06;33.95;;;4.43;;
33696;SDS011;20031;43.416;23.232;2022-08-25T14:38:32;33.50;;;5.13;;
33696;SDS011;20031;43.416;23.232;2022-08-25T14:40:58;32.65;;;4.53;;
33696;SDS011;20031;43.416;23.232;2022-08-25T14:43:24;44.55;;;5.20;;
33696;SDS011;20031;43.416;23.232;2022-08-25T14:45:49;42.22;;;5.45;;
33696;SDS011;20031;43.416;23.232;2022-08-25T14:50:44;58.42;;;8.50;;
33696;SDS011;20031;43.416;23.232;2022-08-25T14:53:10;50.35;;;7.90;;
33696;SDS011;20031;43.416;23.232;2022-08-25T14:55:36;47.28;;;7.90;;
33696;SDS011;20031;43.416;23.232;2022-08-25T14:58:02;43.13;;;8.45;;
33696;SDS011;20031;43.416;23.232;2022-08-25T15:00:28;48.10;;;6.75;;
33696;SDS011;20031;43.416;23.232;2022-08-25T15:02:53;49.67;;;5.82;;
33696;SDS011;20031;43.416;23.232;2022-08-25T15:05:23;49.45;;;5.65;;
33696;SDS011;20031;43.416;23.232;2022-08-25T15:07:51;47.90;;;5.22;;
33696;SDS011;20031;43.416;23.232;2022-08-25T15:10:37;43.50;;;4.22;;
33696;SDS011;20031;43.416;23.232;2022-08-25T15:13:03;52.47;;;5.10;;
33696;SDS011;20031;43.416;23.232;2022-08-25T15:15:30;28.73;;;4.60;;
33696;SDS011;20031;43.416;23.232;2022-08-25T15:17:57;35.13;;;4.40;;
33696;SDS011;20031;43.416;23.232;2022-08-25T15:20:23;43.60;;;4.43;;
33696;SDS011;20031;43.416;23.232;2022-08-25T15:22:49;40.67;;;3.97;;
33696;SDS011;20031;43.416;23.232;2022-08-25T15:25:14;48.80;;;4.18;;
33696;SDS011;20031;43.416;23.232;2022-08-25T15:27:40;50.80;;;4.63;;
33696;SDS011;20031;43.416;23.232;2022-08-25T15:30:06;41.95;;;4.70;;
33696;SDS011;20031;43.416;23.232;2022-08-25T15:32:32;38.97;;;3.97;;
33696;SDS011;20031;43.416;23.232;2022-08-25T15:34:58;43.58;;;4.05;;
33696;SDS011;20031;43.416;23.232;2022-08-25T15:37:24;45.30;;;4.35;;
33696;SDS011;20031;43.416;23.232;2022-08-25T15:39:50;49.80;;;5.03;;
33696;SDS011;20031;43.416;23.232;2022-08-25T15:42:16;47.05;;;4.57;;
33696;SDS011;20031;43.416;23.232;2022-08-25T15:44:42;47.33;;;4.20;;
33696;SDS011;20031;43.416;23.232;2022-08-25T15:47:08;46.72;;;4.25;;
33696;SDS011;20031;43.416;23.232;2022-08-25T15:49:33;46.97;;;3.50;;
33696;SDS011;20031;43.416;23.232;2022-08-25T15:51:59;39.63;;;3.63;;
33696;SDS011;20031;43.416;23.232;2022-08-25T15:54:26;41.55;;;4.03;;
33696;SDS011;20031;43.416;23.232;2022-08-25T15:56:52;31.90;;;4.40;;
33696;SDS011;20031;43.416;23.232;2022-08-25T15:59:19;39.55;;;4.07;;
33696;SDS011;20031;43.416;23.232;2022-08-25T16:01:45;41.72;;;4.20;;
33696;SDS011;20031;43.416;23.232;2022-08-25T16:04:11;36.75;;;4.30;;
33696;SDS011;20031;43.416;23.232;2022-08-25T16:06:36;41.85;;;4.47;;
33696;SDS011;20031;43.416;23.232;2022-08-25T16:09:03;30.42;;;3.88;;
33696;SDS011;20031;43.416;23.232;2022-08-25T16:11:30;58.55;;;4.45;;
33696;SDS011;20031;43.416;23.232;2022-08-25T16:13:58;41.28;;;4.22;;
33696;SDS011;20031;43.416;23.232;2022-08-25T16:16:25;37.45;;;4.00;;
33696;SDS011;20031;43.416;23.232;2022-08-25T16:18:53;48.72;;;4.45;;
33696;SDS011;20031;43.416;23.232;2022-08-25T16:21:21;44.70;;;4.80;;
33696;SDS011;20031;43.416;23.232;2022-08-25T16:23:55;49.33;;;4.43;;
33696;SDS011;20031;43.416;23.232;2022-08-25T16:26:22;40.75;;;4.88;;
33696;SDS011;20031;43.416;23.232;2022-08-25T16:28:48;56.60;;;4.13;;
33696;SDS011;20031;43.416;23.232;2022-08-25T16:31:14;45.20;;;4.97;;
33696;SDS011;20031;43.416;23.232;2022-08-25T16:33:40;45.22;;;4.63;;
33696;SDS011;20031;43.416;23.232;2022-08-25T16:36:17;39.17;;;4.43;;
33696;SDS011;20031;43.416;23.232;2022-08-25T16:38:44;39.92;;;4.45;;
33696;SDS011;20031;43.416;23.232;2022-08-25T16:41:12;35.47;;;4.85;;
33696;SDS011;20031;43.416;23.232;2022-08-25T16:43:41;37.88;;;4.53;;
33696;SDS011;20031;43.416;23.232;2022-08-25T16:46:10;38.78;;;3.97;;
33696;SDS011;20031;43.416;23.232;2022-08-25T16:48:37;36.70;;;4.25;;
33696;SDS011;20031;43.416;23.232;2022-08-25T16:51:07;51.05;;;4.28;;
33696;SDS011;20031;43.416;23.232;2022-08-25T16:53:32;37.38;;;4.15;;
33696;SDS011;20031;43.416;23.232;2022-08-25T16:56:16;32.13;;;4.43;;
33696;SDS011;20031;43.416;23.232;2022-08-25T16:58:42;47.65;;;4.45;;
33696;SDS011;20031;43.416;23.232;2022-08-25T17:01:10;33.58;;;4.40;;
33696;SDS011;20031;43.416;23.232;2022-08-25T17:03:36;43.85;;;5.32;;